sensor_id;sensor_type;location;lat;lon;timestamp;pressure;altitude;pressure_sealevel;temperature;humidity
79752;BME280;69234;47.446;21.636;2023-07-31T00:00:09;100116.31;;;17.81;94.03
79752;BME280;69234;47.446;21.636;2023-07-31T00:00:41;100104.63;;;17.72;93.77
79752;BME280;69234;47.446;21.636;2023-07-31T00:01:12;100113.09;;;17.77;94.43
79752;BME280;69234;47.446;21.636;2023-07-31T00:01:43;100107.69;;;17.77;93.83
79752;BME280;69234;47.446;21.636;2023-07-31T00:02:13;100111.41;;;17.76;94.84
79752;BME280;69234;47.446;21.636;2023-07-31T00:02:44;100120.41;;;17.77;94.85
79752;BME280;69234;47.446;21.636;2023-07-31T00:03:15;100100.22;;;17.71;95.07
79752;BME280;69234;47.446;21.636;2023-07-31T00:03:46;100110.38;;;17.77;95.26
79752;BME280;69234;47.446;21.636;2023-07-31T00:04:17;100111.56;;;17.75;94.82
79752;BME280;69234;47.446;21.636;2023-07-31T00:04:48;100116.16;;;17.74;95.44
79752;BME280;69234;47.446;21.636;2023-07-31T00:05:19;100101.63;;;17.67;95.09
79752;BME280;69234;47.446;21.636;2023-07-31T00:05:50;100115.13;;;17.75;94.74
79752;BME280;69234;47.446;21.636;2023-07-31T00:06:21;100110.88;;;17.73;95.09
79752;BME280;69234;47.446;21.636;2023-07-31T00:06:52;100106.22;;;17.67;95.15
79752;BME280;69234;47.446;21.636;2023-07-31T00:07:23;100121.75;;;17.73;95.34
79752;BME280;69234;47.446;21.636;2023-07-31T00:07:54;100111.06;;;17.56;95.09
79752;BME280;69234;47.446;21.636;2023-07-31T00:08:25;100128.00;;;17.58;95.84
79752;BME280;69234;47.446;21.636;2023-07-31T00:08:56;100127.72;;;17.53;95.86
79752;BME280;69234;47.446;21.636;2023-07-31T00:09:27;100114.66;;;17.49;95.84
79752;BME280;69234;47.446;21.636;2023-07-31T00:09:58;100125.28;;;17.58;96.63
79752;BME280;69234;47.446;21.636;2023-07-31T00:10:29;100114.28;;;17.52;96.47
79752;BME280;69234;47.446;21.636;2023-07-31T00:11:00;100129.50;;;17.61;96.48
79752;BME280;69234;47.446;21.636;2023-07-31T00:11:31;100131.66;;;17.66;96.53
79752;BME280;69234;47.446;21.636;2023-07-31T00:12:02;100128.13;;;17.65;96.10
79752;BME280;69234;47.446;21.636;2023-07-31T00:12:33;100108.50;;;17.55;95.26
79752;BME280;69234;47.446;21.636;2023-07-31T00:13:03;100114.63;;;17.57;95.49
79752;BME280;69234;47.446;21.636;2023-07-31T00:13:34;100127.06;;;17.66;95.30
79752;BME280;69234;47.446;21.636;2023-07-31T00:14:05;100141.34;;;17.68;95.57
79752;BME280;69234;47.446;21.636;2023-07-31T00:14:36;100128.31;;;17.64;95.25
79752;BME280;69234;47.446;21.636;2023-07-31T00:15:07;100123.72;;;17.64;94.61
79752;BME280;69234;47.446;21.636;2023-07-31T00:15:38;100129.78;;;17.66;94.74
79752;BME280;69234;47.446;21.636;2023-07-31T00:16:09;100139.94;;;17.72;94.99
79752;BME280;69234;47.446;21.636;2023-07-31T00:16:40;100128.13;;;17.65;94.77
79752;BME280;69234;47.446;21.636;2023-07-31T00:17:11;100128.44;;;17.70;94.64
79752;BME280;69234;47.446;21.636;2023-07-31T00:17:42;100127.84;;;17.60;95.40
79752;BME280;69234;47.446;21.636;2023-07-31T00:18:13;100142.38;;;17.67;95.97
79752;BME280;69234;47.446;21.636;2023-07-31T00:18:44;100145.09;;;17.67;96.48
79752;BME280;69234;47.446;21.636;2023-07-31T00:19:15;100132.91;;;17.63;96.20
79752;BME280;69234;47.446;21.636;2023-07-31T00:19:46;100139.28;;;17.70;96.33
79752;BME280;69234;47.446;21.636;2023-07-31T00:20:20;100129.31;;;17.63;96.02
79752;BME280;69234;47.446;21.636;2023-07-31T00:20:51;100142.66;;;17.72;96.13
79752;BME280;69234;47.446;21.636;2023-07-31T00:21:22;100137.06;;;17.74;96.50
79752;BME280;69234;47.446;21.636;2023-07-31T00:21:53;100139.44;;;17.77;96.29
79752;BME280;69234;47.446;21.636;2023-07-31T00:22:24;100131.41;;;17.75;95.78
79752;BME280;69234;47.446;21.636;2023-07-31T00:22:55;100139.03;;;17.80;96.24
79752;BME280;69234;47.446;21.636;2023-07-31T00:23:26;100139.53;;;17.83;96.54
79752;BME280;69234;47.446;21.636;2023-07-31T00:23:57;100140.56;;;17.82;95.67
79752;BME280;69234;47.446;21.636;2023-07-31T00:24:28;100137.47;;;17.86;96.42
79752;BME280;69234;47.446;21.636;2023-07-31T00:24:59;100142.91;;;17.86;95.83
79752;BME280;69234;47.446;21.636;2023-07-31T00:25:31;100145.91;;;17.91;95.50
79752;BME280;69234;47.446;21.636;2023-07-31T00:26:02;100128.28;;;17.87;95.82
79752;BME280;69234;47.446;21.636;2023-07-31T00:26:33;100140.09;;;17.94;95.38
79752;BME280;69234;47.446;21.636;2023-07-31T00:27:05;100128.66;;;17.83;95.93
79752;BME280;69234;47.446;21.636;2023-07-31T00:27:35;100138.44;;;17.93;95.82
79752;BME280;69234;47.446;21.636;2023-07-31T00:28:06;100131.00;;;17.87;95.33
79752;BME280;69234;47.446;21.636;2023-07-31T00:28:37;100142.81;;;17.94;95.70
79752;BME280;69234;47.446;21.636;2023-07-31T00:29:08;100132.88;;;17.86;95.72
79752;BME280;69234;47.446;21.636;2023-07-31T00:29:39;100129.13;;;17.87;96.31
79752;BME280;69234;47.446;21.636;2023-07-31T00:30:11;100132.50;;;17.89;95.23
79752;BME280;69234;47.446;21.636;2023-07-31T00:30:41;100144.34;;;17.96;95.87
79752;BME280;69234;47.446;21.636;2023-07-31T00:31:12;100126.25;;;17.89;96.23
79752;BME280;69234;47.446;21.636;2023-07-31T00:31:43;100141.81;;;17.95;96.35
79752;BME280;69234;47.446;21.636;2023-07-31T00:32:14;100139.75;;;17.97;96.70
79752;BME280;69234;47.446;21.636;2023-07-31T00:32:45;100144.34;;;17.96;95.98
79752;BME280;69234;47.446;21.636;2023-07-31T00:33:16;100125.19;;;17.90;95.96
79752;BME280;69234;47.446;21.636;2023-07-31T00:33:47;100142.66;;;17.95;95.13
79752;BME280;69234;47.446;21.636;2023-07-31T00:34:18;100143.28;;;17.97;95.43
79752;BME280;69234;47.446;21.636;2023-07-31T00:34:49;100150.25;;;18.00;95.86
79752;BME280;69234;47.446;21.636;2023-07-31T00:35:20;100144.34;;;17.96;95.42
79752;BME280;69234;47.446;21.636;2023-07-31T00:35:51;100132.31;;;17.91;95.28
79752;BME280;69234;47.446;21.636;2023-07-31T00:36:23;100139.75;;;17.97;95.30
79752;BME280;69234;47.446;21.636;2023-07-31T00:36:54;100143.28;;;17.97;96.08
79752;BME280;69234;47.446;21.636;2023-07-31T00:37:25;100147.53;;;18.00;96.25
79752;BME280;69234;47.446;21.636;2023-07-31T00:37:58;100133.66;;;17.95;95.43
79752;BME280;69234;47.446;21.636;2023-07-31T00:38:29;100137.22;;;17.95;96.07
79752;BME280;69234;47.446;21.636;2023-07-31T00:39:00;100136.38;;;17.95;96.23
79752;BME280;69234;47.446;21.636;2023-07-31T00:39:31;100145.47;;;18.02;96.18
79752;BME280;69234;47.446;21.636;2023-07-31T00:40:02;100141.06;;;18.01;95.97
79752;BME280;69234;47.446;21.636;2023-07-31T00:40:35;100127.38;;;17.94;94.98
79752;BME280;69234;47.446;21.636;2023-07-31T00:41:07;100141.94;;;18.01;95.69
79752;BME280;69234;47.446;21.636;2023-07-31T00:41:38;100148.19;;;18.02;95.73
79752;BME280;69234;47.446;21.636;2023-07-31T00:42:09;100136.53;;;17.93;95.33
79752;BME280;69234;47.446;21.636;2023-07-31T00:42:40;100152.13;;;17.99;95.77
79752;BME280;69234;47.446;21.636;2023-07-31T00:43:12;100149.41;;;17.99;96.31
79752;BME280;69234;47.446;21.636;2023-07-31T00:43:43;100145.84;;;17.99;96.44
79752;BME280;69234;47.446;21.636;2023-07-31T00:44:14;100148.56;;;17.99;95.88
79752;BME280;69234;47.446;21.636;2023-07-31T00:44:45;100145.66;;;18.00;95.52
79752;BME280;69234;47.446;21.636;2023-07-31T00:45:16;100143.41;;;18.04;95.71
79752;BME280;69234;47.446;21.636;2023-07-31T00:45:47;100150.19;;;18.08;95.98
79752;BME280;69234;47.446;21.636;2023-07-31T00:46:18;100144.75;;;18.08;96.28
79752;BME280;69234;47.446;21.636;2023-07-31T00:46:49;100149.31;;;18.08;95.50
79752;BME280;69234;47.446;21.636;2023-07-31T00:47:20;100143.72;;;18.09;95.90
79752;BME280;69234;47.446;21.636;2023-07-31T00:47:51;100149.63;;;18.13;95.69
79752;BME280;69234;47.446;21.636;2023-07-31T00:48:23;100147.06;;;18.11;95.04
79752;BME280;69234;47.446;21.636;2023-07-31T00:48:54;100136.09;;;18.04;94.98
79752;BME280;69234;47.446;21.636;2023-07-31T00:49:26;100148.59;;;18.14;95.04
79752;BME280;69234;47.446;21.636;2023-07-31T00:49:57;100144.81;;;18.15;94.74
79752;BME280;69234;47.446;21.636;2023-07-31T00:50:29;100147.47;;;18.08;94.95
79752;BME280;69234;47.446;21.636;2023-07-31T00:51:00;100150.25;;;18.15;94.82
79752;BME280;69234;47.446;21.636;2023-07-31T00:51:31;100149.06;;;18.17;94.56
79752;BME280;69234;47.446;21.636;2023-07-31T00:52:03;100153.44;;;18.18;94.69
79752;BME280;69234;47.446;21.636;2023-07-31T00:52:35;100141.25;;;18.14;94.75
79752;BME280;69234;47.446;21.636;2023-07-31T00:53:07;100145.97;;;18.20;94.76
79752;BME280;69234;47.446;21.636;2023-07-31T00:53:38;100147.66;;;18.21;95.34
79752;BME280;69234;47.446;21.636;2023-07-31T00:54:11;100138.47;;;18.22;94.71
79752;BME280;69234;47.446;21.636;2023-07-31T00:54:43;100145.75;;;18.22;94.96
79752;BME280;69234;47.446;21.636;2023-07-31T00:55:14;100141.75;;;18.18;95.55
79752;BME280;69234;47.446;21.636;2023-07-31T00:55:46;100143.91;;;18.22;95.90
79752;BME280;69234;47.446;21.636;2023-07-31T00:56:18;100145.59;;;18.23;95.04
79752;BME280;69234;47.446;21.636;2023-07-31T00:56:50;100149.00;;;18.25;94.55
79752;BME280;69234;47.446;21.636;2023-07-31T00:57:23;100137.59;;;18.22;95.24
79752;BME280;69234;47.446;21.636;2023-07-31T00:57:56;100149.00;;;18.25;94.83
79752;BME280;69234;47.446;21.636;2023-07-31T00:58:27;100140.53;;;18.20;95.14
79752;BME280;69234;47.446;21.636;2023-07-31T00:58:58;100143.34;;;18.27;95.24
79752;BME280;69234;47.446;21.636;2023-07-31T00:59:29;100137.44;;;18.23;94.79
79752;BME280;69234;47.446;21.636;2023-07-31T01:00:00;100146.53;;;18.30;94.55
79752;BME280;69234;47.446;21.636;2023-07-31T01:00:31;100133.03;;;18.22;94.45
79752;BME280;69234;47.446;21.636;2023-07-31T01:01:01;100144.84;;;18.29;94.71
79752;BME280;69234;47.446;21.636;2023-07-31T01:01:33;100149.25;;;18.30;95.11
79752;BME280;69234;47.446;21.636;2023-07-31T01:02:04;100135.19;;;18.27;94.50
79752;BME280;69234;47.446;21.636;2023-07-31T01:02:36;100144.03;;;18.29;94.32
79752;BME280;69234;47.446;21.636;2023-07-31T01:03:07;100148.78;;;18.27;95.35
79752;BME280;69234;47.446;21.636;2023-07-31T01:03:38;100152.34;;;18.27;95.22
79752;BME280;69234;47.446;21.636;2023-07-31T01:04:10;100148.59;;;18.28;94.34
79752;BME280;69234;47.446;21.636;2023-07-31T01:04:43;100148.59;;;18.28;95.30
79752;BME280;69234;47.446;21.636;2023-07-31T01:05:14;100138.13;;;18.25;94.86
79752;BME280;69234;47.446;21.636;2023-07-31T01:07:31;100145.03;;;18.28;95.22
79752;BME280;69234;47.446;21.636;2023-07-31T01:08:18;100138.13;;;18.25;94.34
79752;BME280;69234;47.446;21.636;2023-07-31T01:09:20;100141.09;;;18.30;94.77
79752;BME280;69234;47.446;21.636;2023-07-31T01:10:15;100134.34;;;18.26;94.72
79752;BME280;69234;47.446;21.636;2023-07-31T01:11:06;100152.25;;;18.36;95.10
79752;BME280;69234;47.446;21.636;2023-07-31T01:11:48;100136.03;;;18.27;94.86
79752;BME280;69234;47.446;21.636;2023-07-31T01:12:24;100136.50;;;18.31;94.37
79752;BME280;69234;47.446;21.636;2023-07-31T01:12:58;100136.50;;;18.31;94.37
79752;BME280;69234;47.446;21.636;2023-07-31T01:13:29;100147.47;;;18.38;93.93
79752;BME280;69234;47.446;21.636;2023-07-31T01:14:01;100144.97;;;18.36;93.72
79752;BME280;69234;47.446;21.636;2023-07-31T01:14:32;100129.75;;;18.27;93.96
79752;BME280;69234;47.446;21.636;2023-07-31T01:15:08;100139.06;;;18.33;93.72
79752;BME280;69234;47.446;21.636;2023-07-31T01:15:43;100142.41;;;18.35;94.72
79752;BME280;69234;47.446;21.636;2023-07-31T01:16:14;100127.03;;;18.27;94.63
79752;BME280;69234;47.446;21.636;2023-07-31T01:16:45;100144.09;;;18.36;94.67
79752;BME280;69234;47.446;21.636;2023-07-31T01:17:16;100141.19;;;18.37;94.36
79752;BME280;69234;47.446;21.636;2023-07-31T01:17:47;100142.88;;;18.38;94.83
79752;BME280;69234;47.446;21.636;2023-07-31T01:18:18;100138.28;;;18.39;94.08
79752;BME280;69234;47.446;21.636;2023-07-31T01:18:49;100141.66;;;18.41;94.69
79752;BME280;69234;47.446;21.636;2023-07-31T01:19:25;100141.66;;;18.41;94.83
79752;BME280;69234;47.446;21.636;2023-07-31T01:20:07;100123.28;;;18.28;94.40
79752;BME280;69234;47.446;21.636;2023-07-31T01:20:42;100137.63;;;18.37;94.73
79752;BME280;69234;47.446;21.636;2023-07-31T01:22:25;100135.56;;;18.39;94.94
79752;BME280;69234;47.446;21.636;2023-07-31T01:23:35;100131.47;;;18.43;94.60
79752;BME280;69234;47.446;21.636;2023-07-31T01:26:21;100130.22;;;18.45;93.59
79752;BME280;69234;47.446;21.636;2023-07-31T01:27:06;100133.41;;;18.49;93.82
79752;BME280;69234;47.446;21.636;2023-07-31T01:27:50;100123.84;;;18.38;94.30
79752;BME280;69234;47.446;21.636;2023-07-31T01:28:56;100142.72;;;18.40;95.00
79752;BME280;69234;47.446;21.636;2023-07-31T01:29:47;100136.34;;;18.33;95.07
79752;BME280;69234;47.446;21.636;2023-07-31T01:30:27;100139.06;;;18.33;95.32
79752;BME280;69234;47.446;21.636;2023-07-31T01:31:00;100133.22;;;18.36;95.06
79752;BME280;69234;47.446;21.636;2023-07-31T01:31:33;100122.06;;;18.30;95.43
79752;BME280;69234;47.446;21.636;2023-07-31T01:32:07;100130.31;;;18.37;95.08
79752;BME280;69234;47.446;21.636;2023-07-31T01:32:40;100126.66;;;18.30;94.82
79752;BME280;69234;47.446;21.636;2023-07-31T01:33:15;100134.91;;;18.37;95.67
79752;BME280;69234;47.446;21.636;2023-07-31T01:33:47;100128.44;;;18.38;95.11
79752;BME280;69234;47.446;21.636;2023-07-31T01:34:20;100120.84;;;18.33;94.60
79752;BME280;69234;47.446;21.636;2023-07-31T01:34:52;100116.41;;;18.32;94.67
79752;BME280;69234;47.446;21.636;2023-07-31T01:35:24;100128.63;;;18.36;94.41
79752;BME280;69234;47.446;21.636;2023-07-31T01:35:56;100132.84;;;18.39;95.20
79752;BME280;69234;47.446;21.636;2023-07-31T01:36:29;100127.41;;;18.39;95.30
79752;BME280;69234;47.446;21.636;2023-07-31T01:37:00;100128.91;;;18.41;95.15
79752;BME280;69234;47.446;21.636;2023-07-31T01:37:31;100120.66;;;18.35;94.61
79752;BME280;69234;47.446;21.636;2023-07-31T01:38:03;100130.78;;;18.41;94.29
79752;BME280;69234;47.446;21.636;2023-07-31T01:38:35;100127.88;;;18.42;94.75
79752;BME280;69234;47.446;21.636;2023-07-31T01:39:06;100119.91;;;18.41;94.91
79752;BME280;69234;47.446;21.636;2023-07-31T01:39:37;100113.72;;;18.32;94.52
79752;BME280;69234;47.446;21.636;2023-07-31T01:40:09;100117.94;;;18.35;95.12
79752;BME280;69234;47.446;21.636;2023-07-31T01:40:43;100120.94;;;18.40;95.02
79752;BME280;69234;47.446;21.636;2023-07-31T01:41:16;100129.94;;;18.40;94.71
79752;BME280;69234;47.446;21.636;2023-07-31T01:41:47;100127.41;;;18.39;94.52
79752;BME280;69234;47.446;21.636;2023-07-31T01:42:18;100115.22;;;18.35;94.80
79752;BME280;69234;47.446;21.636;2023-07-31T01:42:49;100127.22;;;18.40;95.44
79752;BME280;69234;47.446;21.636;2023-07-31T01:43:20;100120.28;;;18.38;95.10
79752;BME280;69234;47.446;21.636;2023-07-31T01:43:51;100122.16;;;18.37;95.25
79752;BME280;69234;47.446;21.636;2023-07-31T01:44:22;100110.63;;;18.35;94.54
79752;BME280;69234;47.446;21.636;2023-07-31T01:44:53;100120.75;;;18.41;95.16
79752;BME280;69234;47.446;21.636;2023-07-31T01:45:24;100121.97;;;18.39;94.97
79752;BME280;69234;47.446;21.636;2023-07-31T01:45:55;100124.69;;;18.39;94.46
79752;BME280;69234;47.446;21.636;2023-07-31T01:46:26;100116.72;;;18.37;95.13
79752;BME280;69234;47.446;21.636;2023-07-31T01:46:57;100111.19;;;18.30;94.72
79752;BME280;69234;47.446;21.636;2023-07-31T01:47:30;100106.59;;;18.31;94.73
79752;BME280;69234;47.446;21.636;2023-07-31T01:48:01;100113.16;;;18.37;94.96
79752;BME280;69234;47.446;21.636;2023-07-31T01:48:32;100115.50;;;18.40;95.16
79752;BME280;69234;47.446;21.636;2023-07-31T01:49:06;100110.44;;;18.37;94.90
79752;BME280;69234;47.446;21.636;2023-07-31T01:49:37;100107.91;;;18.35;94.67
79752;BME280;69234;47.446;21.636;2023-07-31T01:50:08;100111.75;;;18.41;94.22
79752;BME280;69234;47.446;21.636;2023-07-31T01:50:40;100111.09;;;18.39;94.64
79752;BME280;69234;47.446;21.636;2023-07-31T01:51:12;100104.63;;;18.40;94.56
79752;BME280;69234;47.446;21.636;2023-07-31T01:51:43;100105.19;;;18.35;95.09
79752;BME280;69234;47.446;21.636;2023-07-31T01:52:14;100111.09;;;18.39;95.03
79752;BME280;69234;47.446;21.636;2023-07-31T01:52:45;100102.28;;;18.37;94.92
79752;BME280;69234;47.446;21.636;2023-07-31T01:53:16;100109.41;;;18.38;95.08
79752;BME280;69234;47.446;21.636;2023-07-31T01:53:47;100103.97;;;18.38;94.91
79752;BME280;69234;47.446;21.636;2023-07-31T01:54:18;100103.97;;;18.38;95.04
79752;BME280;69234;47.446;21.636;2023-07-31T01:54:49;100109.03;;;18.41;95.40
79752;BME280;69234;47.446;21.636;2023-07-31T01:55:20;100097.22;;;18.34;94.73
79752;BME280;69234;47.446;21.636;2023-07-31T01:55:50;100112.41;;;18.43;95.55
79752;BME280;69234;47.446;21.636;2023-07-31T01:56:21;100104.63;;;18.40;95.30
79752;BME280;69234;47.446;21.636;2023-07-31T01:56:52;100104.63;;;18.40;95.51
79752;BME280;69234;47.446;21.636;2023-07-31T01:57:23;100107.16;;;18.41;95.06
79752;BME280;69234;47.446;21.636;2023-07-31T01:57:55;100102.75;;;18.40;94.58
79752;BME280;69234;47.446;21.636;2023-07-31T01:58:26;100098.91;;;18.35;95.04
79752;BME280;69234;47.446;21.636;2023-07-31T01:58:57;100101.91;;;18.40;94.70
79752;BME280;69234;47.446;21.636;2023-07-31T01:59:28;100105.63;;;18.39;94.35
79752;BME280;69234;47.446;21.636;2023-07-31T01:59:59;100107.34;;;18.40;94.71
79752;BME280;69234;47.446;21.636;2023-07-31T02:00:30;100093.00;;;18.31;95.31
79752;BME280;69234;47.446;21.636;2023-07-31T02:01:01;100110.16;;;18.32;95.07
79752;BME280;69234;47.446;21.636;2023-07-31T02:01:32;100101.53;;;18.28;95.34
79752;BME280;69234;47.446;21.636;2023-07-31T02:02:03;100111.56;;;18.27;95.56
79752;BME280;69234;47.446;21.636;2023-07-31T02:02:34;100100.78;;;18.19;96.03
79752;BME280;69234;47.446;21.636;2023-07-31T02:03:05;100110.63;;;18.20;95.97
79752;BME280;69234;47.446;21.636;2023-07-31T02:03:36;100108.09;;;18.19;95.46
79752;BME280;69234;47.446;21.636;2023-07-31T02:04:07;100110.53;;;18.14;96.03
79752;BME280;69234;47.446;21.636;2023-07-31T02:04:38;100111.00;;;18.17;96.42
79752;BME280;69234;47.446;21.636;2023-07-31T02:05:10;100115.38;;;18.18;95.88
79752;BME280;69234;47.446;21.636;2023-07-31T02:05:48;100104.63;;;18.10;95.70
79752;BME280;69234;47.446;21.636;2023-07-31T02:06:20;100109.69;;;18.13;96.07
79752;BME280;69234;47.446;21.636;2023-07-31T02:06:52;100116.63;;;18.16;95.33
79752;BME280;69234;47.446;21.636;2023-07-31T02:07:23;100104.63;;;18.10;96.18
79752;BME280;69234;47.446;21.636;2023-07-31T02:07:54;100111.56;;;18.13;95.44
79752;BME280;69234;47.446;21.636;2023-07-31T02:08:25;100112.78;;;18.10;95.76
79752;BME280;69234;47.446;21.636;2023-07-31T02:08:56;100110.25;;;18.09;95.79
79752;BME280;69234;47.446;21.636;2023-07-31T02:09:27;100112.13;;;18.08;95.60
79752;BME280;69234;47.446;21.636;2023-07-31T02:09:58;100115.69;;;18.09;96.19
79752;BME280;69234;47.446;21.636;2023-07-31T02:10:29;100099.81;;;17.97;95.94
79752;BME280;69234;47.446;21.636;2023-07-31T02:11:00;100109.09;;;18.03;96.01
79752;BME280;69234;47.446;21.636;2023-07-31T02:11:30;100107.06;;;18.05;96.30
79752;BME280;69234;47.446;21.636;2023-07-31T02:12:02;100111.47;;;18.06;96.13
79752;BME280;69234;47.446;21.636;2023-07-31T02:12:33;100110.78;;;18.04;96.80
79752;BME280;69234;47.446;21.636;2023-07-31T02:13:04;100108.06;;;18.04;95.93
79752;BME280;69234;47.446;21.636;2023-07-31T02:13:35;100110.16;;;18.02;95.98
79752;BME280;69234;47.446;21.636;2023-07-31T02:14:07;100112.19;;;18.00;95.97
79752;BME280;69234;47.446;21.636;2023-07-31T02:14:37;100114.06;;;17.99;96.33
79752;BME280;69234;47.446;21.636;2023-07-31T02:15:09;100109.69;;;17.98;96.19
79752;BME280;69234;47.446;21.636;2023-07-31T02:15:40;100113.88;;;18.01;96.15
79752;BME280;69234;47.446;21.636;2023-07-31T02:16:11;100118.00;;;17.97;95.50
79752;BME280;69234;47.446;21.636;2023-07-31T02:16:42;100114.63;;;17.95;95.97
79752;BME280;69234;47.446;21.636;2023-07-31T02:17:13;100116.88;;;17.91;96.22
79752;BME280;69234;47.446;21.636;2023-07-31T02:17:44;100110.41;;;17.92;95.85
79752;BME280;69234;47.446;21.636;2023-07-31T02:18:16;100124.38;;;17.89;96.20
79752;BME280;69234;47.446;21.636;2023-07-31T02:18:47;100109.63;;;17.83;95.80
79752;BME280;69234;47.446;21.636;2023-07-31T02:19:18;100115.47;;;17.80;96.53
79752;BME280;69234;47.446;21.636;2023-07-31T02:19:49;100102.94;;;17.71;96.80
79752;BME280;69234;47.446;21.636;2023-07-31T02:20:20;100117.84;;;17.75;96.56
79752;BME280;69234;47.446;21.636;2023-07-31T02:20:51;100125.31;;;17.73;96.25
79752;BME280;69234;47.446;21.636;2023-07-31T02:21:23;100125.84;;;17.77;95.92
79752;BME280;69234;47.446;21.636;2023-07-31T02:21:53;100120.56;;;17.75;95.82
79752;BME280;69234;47.446;21.636;2023-07-31T02:22:24;100120.75;;;17.74;95.69
79752;BME280;69234;47.446;21.636;2023-07-31T02:22:55;100111.25;;;17.70;96.03
79752;BME280;69234;47.446;21.636;2023-07-31T02:23:26;100118.03;;;17.74;96.18
79752;BME280;69234;47.446;21.636;2023-07-31T02:23:57;100120.56;;;17.75;97.08
79752;BME280;69234;47.446;21.636;2023-07-31T02:24:28;100118.88;;;17.74;96.27
79752;BME280;69234;47.446;21.636;2023-07-31T02:24:59;100120.75;;;17.74;97.02
79752;BME280;69234;47.446;21.636;2023-07-31T02:25:30;100114.38;;;17.67;96.10
79752;BME280;69234;47.446;21.636;2023-07-31T02:26:01;100115.00;;;17.69;96.24
79752;BME280;69234;47.446;21.636;2023-07-31T02:26:32;100126.72;;;17.69;96.08
79752;BME280;69234;47.446;21.636;2023-07-31T02:27:03;100123.84;;;17.71;96.12
79752;BME280;69234;47.446;21.636;2023-07-31T02:27:34;100118.41;;;17.71;95.54
79752;BME280;69234;47.446;21.636;2023-07-31T02:28:05;100125.88;;;17.69;95.75
79752;BME280;69234;47.446;21.636;2023-07-31T02:28:36;100119.50;;;17.62;96.07
79752;BME280;69234;47.446;21.636;2023-07-31T02:29:06;100126.22;;;17.66;96.62
79752;BME280;69234;47.446;21.636;2023-07-31T02:29:37;100110.19;;;17.56;95.56
79752;BME280;69234;47.446;21.636;2023-07-31T02:30:09;100126.13;;;17.59;96.00
79752;BME280;69234;47.446;21.636;2023-07-31T02:30:43;100127.72;;;17.53;96.22
79752;BME280;69234;47.446;21.636;2023-07-31T02:31:14;100129.75;;;17.51;96.62
79752;BME280;69234;47.446;21.636;2023-07-31T02:31:45;100131.63;;;17.51;96.99
79752;BME280;69234;47.446;21.636;2023-07-31T02:32:16;100135.19;;;17.51;96.75
79752;BME280;69234;47.446;21.636;2023-07-31T02:32:47;100141.47;;;17.52;96.66
79752;BME280;69234;47.446;21.636;2023-07-31T02:33:17;100136.03;;;17.52;96.78
79752;BME280;69234;47.446;21.636;2023-07-31T02:33:48;100138.09;;;17.50;96.66
79752;BME280;69234;47.446;21.636;2023-07-31T02:34:19;100128.78;;;17.44;97.11
79752;BME280;69234;47.446;21.636;2023-07-31T02:34:51;100145.56;;;17.48;96.41
79752;BME280;69234;47.446;21.636;2023-07-31T02:35:22;100144.94;;;17.46;97.42
79752;BME280;69234;47.446;21.636;2023-07-31T02:35:52;100143.88;;;17.47;97.25
79752;BME280;69234;47.446;21.636;2023-07-31T02:36:25;100145.28;;;17.43;97.59
79752;BME280;69234;47.446;21.636;2023-07-31T02:36:56;100145.28;;;17.43;97.19
79752;BME280;69234;47.446;21.636;2023-07-31T02:37:28;100146.97;;;17.44;97.65
79752;BME280;69234;47.446;21.636;2023-07-31T02:37:59;100148.00;;;17.43;97.84
79752;BME280;69234;47.446;21.636;2023-07-31T02:38:30;100149.69;;;17.44;97.54
79752;BME280;69234;47.446;21.636;2023-07-31T02:39:01;100155.81;;;17.38;97.34
79752;BME280;69234;47.446;21.636;2023-07-31T02:39:32;100152.47;;;17.35;97.52
79752;BME280;69234;47.446;21.636;2023-07-31T02:40:04;100140.31;;;17.23;98.46
79752;BME280;69234;47.446;21.636;2023-07-31T02:40:35;100149.44;;;17.30;98.23
79752;BME280;69234;47.446;21.636;2023-07-31T02:41:06;100157.91;;;17.35;97.82
79752;BME280;69234;47.446;21.636;2023-07-31T02:41:38;100154.31;;;17.35;97.52
79752;BME280;69234;47.446;21.636;2023-07-31T02:42:08;100143.34;;;17.28;97.78
79752;BME280;69234;47.446;21.636;2023-07-31T02:42:39;100151.78;;;17.33;97.09
79752;BME280;69234;47.446;21.636;2023-07-31T02:43:10;100150.25;;;17.31;97.73
79752;BME280;69234;47.446;21.636;2023-07-31T02:43:41;100159.25;;;17.31;96.99
79752;BME280;69234;47.446;21.636;2023-07-31T02:44:13;100151.31;;;17.30;97.21
79752;BME280;69234;47.446;21.636;2023-07-31T02:44:45;100153.81;;;17.31;97.59
79752;BME280;69234;47.446;21.636;2023-07-31T02:45:15;100146.91;;;17.29;98.19
79752;BME280;69234;47.446;21.636;2023-07-31T02:45:52;100138.09;;;17.27;97.98
79752;BME280;69234;47.446;21.636;2023-07-31T02:46:23;100151.09;;;17.31;97.84
79752;BME280;69234;47.446;21.636;2023-07-31T02:46:55;100151.50;;;17.28;98.72
79752;BME280;69234;47.446;21.636;2023-07-31T02:47:26;100135.91;;;17.22;98.46
79752;BME280;69234;47.446;21.636;2023-07-31T02:47:57;100129.47;;;17.23;99.00
79752;BME280;69234;47.446;21.636;2023-07-31T02:48:28;100134.88;;;17.23;98.07
79752;BME280;69234;47.446;21.636;2023-07-31T02:48:59;100144.19;;;17.29;98.69
79752;BME280;69234;47.446;21.636;2023-07-31T02:49:30;100145.03;;;17.29;98.52
79752;BME280;69234;47.446;21.636;2023-07-31T02:50:04;100148.47;;;17.23;97.97
79752;BME280;69234;47.446;21.636;2023-07-31T02:50:36;100138.50;;;17.16;98.76
79752;BME280;69234;47.446;21.636;2023-07-31T02:51:07;100143.56;;;17.19;98.81